Time;durP1;ratioP1;P1;durP2;ratioP2;P2;SDS_P1;SDS_P2;PMS_P1;PMS_P2;Temp;Humidity;BMP_temperature;BMP_pressure;BME280_temperature;BME280_humidity;BME280_pressure;Samples;Min_cycle;Max_cycle;Signal;HPM_P1;HPM_P2
2021/11/17 02:27:30;;;;;;;1.73;0.70;;;;;;;9.25;81.77;100886.09;4922398;29;20039;-73
2021/11/17 02:30:20;;;;;;;1.63;1.00;;;;;;;9.31;82.17;100887.00;4936154;28;20086;-75
2021/11/17 02:36:28;;;;;;;0.85;0.80;;;;;;;9.20;81.95;100884.09;4924372;29;20036;-73
2021/11/17 02:39:12;;;;;;;3.67;0.93;;;;;;;9.15;82.16;100886.72;4932737;29;20015;-75
2021/11/17 02:41:37;;;;;;;1.02;0.95;;;;;;;9.08;82.63;100880.59;4929625;29;20032;-75
2021/11/17 02:44:22;;;;;;;3.05;0.70;;;;;;;9.02;82.21;100876.13;4913058;29;20028;-74
2021/11/17 02:46:50;;;;;;;1.30;0.90;;;;;;;8.98;82.29;100880.41;4947100;28;20023;-74
2021/11/17 02:49:44;;;;;;;2.28;1.00;;;;;;;8.88;82.34;100870.16;4919229;29;20032;-74
2021/11/17 02:52:28;;;;;;;1.58;1.25;;;;;;;8.87;82.35;100885.66;4927949;29;20114;-75
2021/11/17 02:54:59;;;;;;;1.00;0.75;;;;;;;8.79;83.04;100894.25;4937335;28;20518;-76
2021/11/17 02:57:43;;;;;;;4.32;1.13;;;;;;;8.76;83.29;100886.56;4890281;29;20028;-74
2021/11/17 03:00:49;;;;;;;4.63;0.98;;;;;;;8.85;83.53;100887.81;4881432;29;20055;-75
2021/11/17 03:03:34;;;;;;;1.37;1.03;;;;;;;8.82;83.49;100888.31;4887814;29;20126;-74
2021/11/17 03:06:18;;;;;;;2.10;1.27;;;;;;;8.81;83.77;100902.19;4880369;29;20107;-73
2021/11/17 03:09:22;;;;;;;2.63;1.20;;;;;;;8.78;84.00;100902.69;4900970;29;20027;-73
2021/11/17 03:12:12;;;;;;;8.82;2.03;;;;;;;8.81;85.00;100903.00;4908576;29;20108;-73
2021/11/17 03:14:49;;;;;;;5.13;1.45;;;;;;;8.89;84.75;100899.06;4926755;29;20075;-72
2021/11/17 03:17:21;;;;;;;4.20;1.25;;;;;;;8.90;84.99;100896.09;4932612;29;20118;-76
2021/11/17 03:20:25;;;;;;;7.50;1.80;;;;;;;8.93;85.38;100888.50;4898099;29;20711;-76
2021/11/17 03:23:21;;;;;;;4.63;1.00;;;;;;;8.96;85.34;100894.28;4902506;29;20036;-76
2021/11/17 03:26:18;;;;;;;2.50;1.08;;;;;;;9.01;84.92;100890.81;4952443;29;20055;-77
2021/11/17 03:29:14;;;;;;;1.95;1.15;;;;;;;9.02;84.70;100889.75;4921240;29;20020;-79
2021/11/17 03:31:45;;;;;;;6.32;1.40;;;;;;;8.98;84.47;100894.03;4911270;29;20177;-77
2021/11/17 03:34:13;;;;;;;1.60;1.25;;;;;;;8.98;84.82;100896.75;4930688;29;20024;-77
2021/11/17 03:37:02;;;;;;;0.63;0.60;;;;;;;8.98;84.72;100903.06;4911736;29;20107;-77
2021/11/17 03:39:52;;;;;;;1.85;1.23;;;;;;;8.98;84.38;100896.75;4940559;29;20608;-76
2021/11/17 03:42:47;;;;;;;0.77;0.77;;;;;;;8.98;84.49;100907.69;4921459;29;20055;-76
2021/11/17 03:45:48;;;;;;;2.83;0.70;;;;;;;8.94;83.94;100906.53;4946083;28;20075;-77
2021/11/17 03:48:34;;;;;;;1.13;0.93;;;;;;;8.89;84.00;100905.34;4912043;29;20032;-77
2021/11/17 03:51:05;;;;;;;2.33;1.08;;;;;;;8.87;83.82;100902.03;4901984;29;20103;-77
2021/11/17 03:53:42;;;;;;;0.80;0.80;;;;;;;8.85;83.77;100906.09;4905912;29;20065;-76
2021/11/17 03:56:42;;;;;;;1.35;0.50;;;;;;;8.71;83.39;100891.91;4943882;28;20094;-76
2021/11/17 03:59:13;;;;;;;1.27;0.50;;;;;;;8.73;83.47;100896.03;4962517;28;20059;-75
2021/11/17 04:01:48;;;;;;;2.28;1.00;;;;;;;8.70;83.41;100890.22;4944514;28;20020;-76
2021/11/17 04:04:40;;;;;;;0.55;0.47;;;;;;;8.66;83.54;100894.50;4951688;28;20387;-75
2021/11/17 04:07:54;;;;;;;0.52;0.52;;;;;;;8.63;83.33;100905.91;4947724;28;20043;-74
2021/11/17 04:10:39;;;;;;;0.82;0.70;;;;;;;8.53;83.29;100901.09;4914885;29;20032;-76
2021/11/17 04:13:26;;;;;;;;;;;;;;;;;;;;;
2021/11/17 04:16:07;;;;;;;0.93;0.82;;;;;;;8.56;83.71;100912.31;4938260;29;20449;-77
2021/11/17 04:18:48;;;;;;;0.93;0.73;;;;;;;8.53;83.25;100912.81;4933324;29;20131;-77
2021/11/17 04:21:22;;;;;;;3.92;1.10;;;;;;;8.43;83.27;100907.09;4944001;28;20063;-75
2021/11/17 04:24:12;;;;;;;1.52;0.77;;;;;;;8.46;83.46;100905.84;4934154;29;20036;-73
2021/11/17 04:26:40;;;;;;;0.75;0.63;;;;;;;8.43;83.76;100901.66;4927293;29;20106;-74
2021/11/17 04:29:23;;;;;;;0.85;0.60;;;;;;;8.42;83.50;100919.06;4948470;28;20135;-73
2021/11/17 04:32:34;;;;;;;2.05;0.85;;;;;;;8.38;83.76;100926.06;4925203;29;20074;-72
2021/11/17 04:35:30;;;;;;;5.13;1.58;;;;;;;8.23;83.57;100912.13;4947097;28;20463;-74
2021/11/17 04:38:38;;;;;;;0.70;0.57;;;;;;;8.22;83.05;100924.91;4933802;29;20039;-73
2021/11/17 04:41:09;;;;;;;0.68;0.52;;;;;;;8.14;82.95;100926.09;4918053;29;20344;-73
2021/11/17 04:43:57;;;;;;;2.10;0.90;;;;;;;8.08;83.75;100921.59;4931759;29;20039;-71
2021/11/17 04:46:31;;;;;;;2.70;1.23;;;;;;;8.08;83.77;100932.50;4927828;29;20040;-74
2021/11/17 04:49:11;;;;;;;3.50;1.17;;;;;;;8.12;84.43;100925.50;4947712;28;20152;-74
2021/11/17 04:52:08;;;;;;;6.57;1.17;;;;;;;8.23;85.12;100933.91;4935453;29;20078;-72
2021/11/17 04:54:52;;;;;;;17.95;2.08;;;;;;;8.35;85.56;100937.44;4919054;29;20040;-73
2021/11/17 04:57:36;;;;;;;7.60;2.05;;;;;;;8.46;85.57;100939.34;4914681;29;20031;-72
2021/11/17 05:00:25;;;;;;;4.10;1.50;;;;;;;8.54;85.56;100947.19;4910834;29;20462;-72
2021/11/17 05:03:11;;;;;;;3.08;1.25;;;;;;;8.52;85.49;100938.41;4944194;28;20109;-72
2021/11/17 05:05:43;;;;;;;2.05;1.15;;;;;;;8.62;84.79;100947.88;4907292;29;20028;-72
2021/11/17 05:08:20;;;;;;;1.10;1.00;;;;;;;8.69;84.78;100951.31;4938587;29;20019;-73
2021/11/17 05:11:00;;;;;;;1.50;1.40;;;;;;;8.67;85.12;100953.44;4944771;28;20028;-72
2021/11/17 05:16:36;;;;;;;3.08;1.45;;;;;;;8.78;84.54;100974.41;4910874;29;20059;-71
2021/11/17 05:19:17;;;;;;;4.85;1.95;;;;;;;8.82;84.55;100972.84;4882111;29;20492;-73
2021/11/17 05:21:48;;;;;;;5.43;1.55;;;;;;;8.86;84.69;100990.41;4912092;29;20043;-72
2021/11/17 05:24:26;;;;;;;4.93;2.25;;;;;;;8.93;84.92;100992.16;4916664;29;20039;-73
2021/11/17 05:27:09;;;;;;;3.35;1.90;;;;;;;8.99;84.74;100991.19;4942653;29;20047;-72
2021/11/17 05:29:56;;;;;;;3.40;1.88;;;;;;;9.05;84.45;100999.25;4940016;29;20048;-72
2021/11/17 05:32:45;;;;;;;2.50;2.17;;;;;;;9.09;84.62;100991.38;4935813;29;20032;-72
2021/11/17 05:35:29;;;;;;;4.72;1.83;;;;;;;9.22;84.88;101006.66;4893722;29;20024;-72
2021/11/17 05:38:19;;;;;;;2.38;1.73;;;;;;;9.29;84.95;101003.75;4930733;29;20149;-71
2021/11/17 05:41:06;;;;;;;2.00;1.60;;;;;;;9.34;84.31;100999.22;4919743;29;20031;-72
2021/11/17 05:43:57;;;;;;;3.50;1.83;;;;;;;9.38;84.20;101005.88;4890297;29;20114;-71
2021/11/17 05:47:04;;;;;;;3.22;2.38;;;;;;;9.39;84.09;101017.63;4893754;29;20050;-72
2021/11/17 05:49:45;;;;;;;3.13;1.90;;;;;;;9.37;83.69;101014.31;4928409;29;20087;-72
2021/11/17 05:52:13;;;;;;;2.05;1.85;;;;;;;9.35;83.74;101013.72;4906739;29;20043;-71
2021/11/17 05:55:02;;;;;;;6.00;2.35;;;;;;;9.32;83.52;101023.22;4916641;29;20043;-71
2021/11/17 05:58:04;;;;;;;3.83;1.90;;;;;;;9.24;83.74;101019.00;4923160;29;20038;-71
2021/11/17 06:00:43;;;;;;;3.85;1.60;;;;;;;9.26;83.44;101027.75;4899396;29;20083;-71
2021/11/17 06:03:08;;;;;;;1.50;1.40;;;;;;;9.22;83.60;101034.75;4924247;29;20165;-72
2021/11/17 06:05:34;;;;;;;2.97;1.13;;;;;;;9.17;83.22;101025.63;4921001;29;20490;-73
2021/11/17 06:07:59;;;;;;;1.45;1.05;;;;;;;9.12;83.42;101023.63;4927181;29;20035;-73
2021/11/17 06:10:31;;;;;;;1.67;1.58;;;;;;;9.06;82.98;101030.06;4922883;29;20032;-71
2021/11/17 06:12:57;;;;;;;2.75;1.90;;;;;;;9.00;83.12;101036.50;4924656;29;20028;-72
2021/11/17 06:15:25;;;;;;;1.55;1.45;;;;;;;8.86;82.89;101027.72;4897973;29;20810;-72
2021/11/17 06:17:54;;;;;;;0.95;0.93;;;;;;;8.89;82.95;101052.63;4917009;29;20028;-72
2021/11/17 06:20:20;;;;;;;0.73;0.73;;;;;;;8.83;82.48;101047.31;4917030;29;20075;-72
2021/11/17 06:22:51;;;;;;;1.40;1.30;;;;;;;8.72;82.79;101051.72;4926557;29;20038;-71
2021/11/17 06:25:18;;;;;;;2.58;1.52;;;;;;;8.70;82.69;101060.13;4909547;29;20062;-72
2021/11/17 06:27:48;;;;;;;2.33;1.75;;;;;;;8.68;82.87;101061.44;4899460;29;20035;-71
2021/11/17 06:30:17;;;;;;;3.38;1.67;;;;;;;8.60;82.59;101059.03;4923203;29;20032;-71
2021/11/17 06:32:50;;;;;;;1.25;1.15;;;;;;;8.60;82.60;101067.22;4922493;29;20036;-72
2021/11/17 06:35:16;;;;;;;1.90;1.10;;;;;;;8.54;82.35;101067.13;4929250;29;20043;-71
2021/11/17 06:37:43;;;;;;;1.50;1.23;;;;;;;8.53;82.63;101078.25;4925285;29;20456;-73
2021/11/17 06:40:15;;;;;;;1.92;1.23;;;;;;;8.54;82.94;101080.75;4926412;29;20031;-70
2021/11/17 06:42:47;;;;;;;1.52;1.33;;;;;;;8.52;82.77;101087.50;4923244;29;20133;-73
2021/11/17 06:45:37;;;;;;;1.63;1.42;;;;;;;8.46;82.43;101074.81;4925379;29;20035;-76
2021/11/17 06:48:04;;;;;;;1.30;1.20;;;;;;;8.36;82.91;101069.91;4922611;29;20016;-76
2021/11/17 06:50:30;;;;;;;4.95;1.17;;;;;;;8.41;82.77;101086.41;4921019;29;20044;-76
2021/11/17 06:53:01;;;;;;;0.95;0.88;;;;;;;8.44;82.79;101105.03;4917146;29;20118;-75
2021/11/17 06:55:27;;;;;;;1.60;1.08;;;;;;;8.44;82.78;101115.94;4929830;29;20134;-73
2021/11/17 06:58:00;;;;;;;1.05;0.80;;;;;;;8.34;82.68;101099.31;4921508;29;20059;-73
2021/11/17 07:00:29;;;;;;;1.52;1.00;;;;;;;8.23;82.73;101097.38;4903612;29;20051;-75
2021/11/17 07:02:54;;;;;;;2.60;1.05;;;;;;;8.41;82.72;101132.75;4926817;29;20032;-74
2021/11/17 07:05:22;;;;;;;1.35;1.25;;;;;;;8.37;82.94;101132.34;4912571;29;20043;-75
2021/11/17 07:08:08;;;;;;;2.10;0.77;;;;;;;8.39;82.69;101140.31;4922934;29;20502;-73
2021/11/17 07:10:36;;;;;;;2.72;1.20;;;;;;;8.33;82.55;101136.63;4915653;29;20470;-73
2021/11/17 07:13:55;;;;;;;0.70;0.70;;;;;;;8.29;83.05;101134.59;4955059;29;20032;-73
2021/11/17 07:16:38;;;;;;;;;;;;;;;;;;;;;
2021/11/17 07:19:12;;;;;;;2.72;1.25;;;;;;;8.23;82.55;101135.53;4921631;29;20042;-74
2021/11/17 07:21:41;;;;;;;3.03;1.13;;;;;;;8.22;82.89;101151.06;4931617;29;20034;-75
2021/11/17 07:24:06;;;;;;;1.52;0.75;;;;;;;8.24;82.85;101157.09;4934721;29;20028;-76
2021/11/17 07:26:32;;;;;;;1.05;0.73;;;;;;;8.23;82.64;101157.34;4938873;29;20024;-75
2021/11/17 07:29:00;;;;;;;0.88;0.73;;;;;;;8.32;83.06;101166.81;4938470;23;20736;-73
2021/11/17 07:31:26;;;;;;;1.40;0.65;;;;;;;8.30;82.75;101158.06;4935545;29;20051;-73
2021/11/17 07:33:52;;;;;;;5.97;1.25;;;;;;;8.24;82.51;101153.56;4928877;29;20035;-73
2021/11/17 07:36:20;;;;;;;2.03;1.17;;;;;;;8.36;82.77;101168.84;4902215;29;20131;-73
2021/11/17 07:38:49;;;;;;;5.05;1.45;;;;;;;8.39;82.91;101162.09;4932192;29;20057;-73
2021/11/17 07:41:15;;;;;;;1.10;1.00;;;;;;;8.46;83.14;101160.13;4910791;29;20054;-72
2021/11/17 07:43:41;;;;;;;7.13;1.75;;;;;;;8.57;82.86;101169.41;4931704;29;20027;-72
2021/11/17 07:46:06;;;;;;;2.88;1.58;;;;;;;8.64;82.70;101185.66;4918153;29;20035;-73
2021/11/17 07:48:32;;;;;;;1.13;1.00;;;;;;;8.67;82.76;101187.91;4930773;29;20043;-72
2021/11/17 07:51:01;;;;;;;2.08;1.15;;;;;;;8.66;82.56;101189.81;4931697;29;20036;-73
2021/11/17 07:53:28;;;;;;;2.55;1.15;;;;;;;8.70;82.52;101195.63;4909677;29;20032;-72
2021/11/17 07:55:55;;;;;;;2.83;1.63;;;;;;;8.64;82.67;101191.13;4914864;29;20028;-72
2021/11/17 07:58:24;;;;;;;5.68;1.45;;;;;;;8.68;82.26;101203.22;4934031;29;20405;-71
2021/11/17 08:00:53;;;;;;;1.75;1.48;;;;;;;8.70;82.57;101192.91;4932658;29;20090;-71
2021/11/17 08:03:22;;;;;;;3.33;1.27;;;;;;;8.76;82.78;101197.44;4935138;29;20437;-71
2021/11/17 08:05:50;;;;;;;1.67;1.10;;;;;;;8.78;82.34;101198.00;4915965;29;20032;-75
2021/11/17 08:08:17;;;;;;;2.53;1.38;;;;;;;8.78;82.37;101194.47;4917947;29;20486;-76
2021/11/17 08:10:44;;;;;;;4.63;1.25;;;;;;;8.79;82.16;101194.22;4931445;29;20038;-75
2021/11/17 08:13:13;;;;;;;4.45;1.02;;;;;;;8.87;82.34;101206.69;4936202;29;20098;-77
2021/11/17 08:15:43;;;;;;;5.97;1.80;;;;;;;8.78;82.33;101192.56;4916602;29;20031;-76
2021/11/17 08:18:09;;;;;;;11.15;1.98;;;;;;;8.84;81.62;101207.97;4913620;29;20086;-74
2021/11/17 08:20:37;;;;;;;6.10;1.20;;;;;;;8.84;81.97;101202.53;4917332;29;20036;-75
2021/11/17 08:23:05;;;;;;;3.20;1.42;;;;;;;8.91;81.94;101213.34;4908513;29;20365;-76
2021/11/17 08:25:38;;;;;;;4.57;1.48;;;;;;;8.84;81.69;101212.59;4934279;29;20607;-78
2021/11/17 08:28:04;;;;;;;7.90;1.92;;;;;;;8.82;81.68;101217.44;4937562;29;20471;-74
2021/11/17 08:30:36;;;;;;;4.05;1.48;;;;;;;8.95;81.75;101235.50;4916658;29;20055;-73
2021/11/17 08:33:10;;;;;;;5.88;0.95;;;;;;;8.99;81.74;101242.97;4933094;29;20047;-74
2021/11/17 08:35:40;;;;;;;10.40;1.92;;;;;;;8.96;80.92;101234.44;4941485;29;20374;-74
2021/11/17 08:38:18;;;;;;;;;;;;;;;;;;;;;
2021/11/17 08:40:52;;;;;;;8.52;1.25;;;;;;;9.06;80.99;101237.41;4943589;29;20385;-73
2021/11/17 08:43:19;;;;;;;8.00;1.40;;;;;;;9.19;80.10;101248.09;4931505;29;20040;-74
2021/11/17 08:45:44;;;;;;;8.32;1.67;;;;;;;9.29;79.69;101263.03;4918351;29;20066;-73
2021/11/17 08:48:14;;;;;;;7.55;2.08;;;;;;;9.42;79.68;101251.91;4919785;29;20047;-73
2021/11/17 08:50:40;;;;;;;7.68;1.65;;;;;;;9.57;79.28;101254.97;4941663;29;20023;-73
2021/11/17 08:53:09;;;;;;;15.50;1.88;;;;;;;9.69;78.70;101263.16;4938872;29;20095;-73
2021/11/17 08:55:35;;;;;;;5.40;1.30;;;;;;;9.79;78.27;101263.38;4899850;29;20114;-74
2021/11/17 08:58:01;;;;;;;4.72;1.27;;;;;;;9.79;77.54;101254.34;4933520;29;20095;-75
2021/11/17 09:00:28;;;;;;;5.22;1.42;;;;;;;9.83;77.21;101266.47;4913369;29;20438;-74
2021/11/17 09:02:56;;;;;;;4.35;1.30;;;;;;;9.80;77.80;101236.91;4919024;29;20039;-74
2021/11/17 09:05:32;;;;;;;4.55;1.40;;;;;;;10.00;76.77;101261.06;4915126;29;20475;-73
2021/11/17 09:08:03;;;;;;;4.40;0.90;;;;;;;10.06;76.25;101262.00;4931781;29;20031;-74
2021/11/17 09:10:43;;;;;;;14.05;1.95;;;;;;;10.12;75.52;101245.47;4918092;29;20019;-76
2021/11/17 09:13:09;;;;;;;10.82;3.00;;;;;;;10.56;74.92;101277.78;4926660;29;20027;-78
2021/11/17 09:15:37;;;;;;;16.25;2.03;;;;;;;11.04;73.31;101272.88;4936101;29;20489;-74
2021/11/17 09:18:05;;;;;;;3.75;1.75;;;;;;;11.46;72.30;101280.66;4913906;29;20382;-74
2021/11/17 09:20:33;;;;;;;8.73;1.65;;;;;;;11.51;71.12;101282.63;4916464;29;20038;-74
2021/11/17 09:23:00;;;;;;;2.53;1.00;;;;;;;11.61;70.51;101304.69;4930362;29;20019;-74
2021/11/17 09:25:26;;;;;;;7.60;1.35;;;;;;;11.60;70.58;101307.69;4916176;29;20047;-73
2021/11/17 09:27:53;;;;;;;8.70;2.53;;;;;;;11.46;69.80;101301.72;4940852;29;20058;-76
2021/11/17 09:30:26;;;;;;;14.02;2.47;;;;;;;11.33;69.61;101301.00;4924383;29;20070;-76
2021/11/17 09:32:59;;;;;;;8.40;2.20;;;;;;;11.17;69.56;101299.09;4932982;29;20351;-76
2021/11/17 09:35:29;;;;;;;4.93;1.45;;;;;;;11.20;69.08;101303.22;4915877;29;20031;-75
2021/11/17 09:37:55;;;;;;;9.57;2.20;;;;;;;11.65;69.63;101333.25;4922357;29;20461;-76
2021/11/17 09:40:49;;;;;;;9.85;1.52;;;;;;;12.25;69.26;101325.34;4913523;29;20079;-74
2021/11/17 09:43:20;;;;;;;8.85;1.38;;;;;;;12.82;67.00;101323.19;4904265;29;20067;-75
2021/11/17 09:45:49;;;;;;;6.22;2.03;;;;;;;13.12;65.30;101305.38;4921707;29;20030;-77
2021/11/17 09:48:24;;;;;;;5.28;1.63;;;;;;;13.43;64.02;101306.44;4906379;29;20028;-74
2021/11/17 09:50:55;;;;;;;6.15;1.63;;;;;;;13.89;63.88;101330.69;4907213;29;20036;-75
2021/11/17 09:53:48;;;;;;;14.73;1.52;;;;;;;14.27;62.31;101323.97;4923991;29;20099;-76
2021/11/17 09:56:19;;;;;;;4.93;1.35;;;;;;;14.80;61.07;101329.38;4928572;29;20034;-73
2021/11/17 09:58:52;;;;;;;2.50;1.17;;;;;;;15.42;60.63;101329.44;4932229;29;20039;-75
2021/11/17 10:01:38;;;;;;;8.30;1.88;;;;;;;16.29;58.03;101330.38;4910430;29;20069;-74
2021/11/17 10:04:03;;;;;;;3.15;1.52;;;;;;;17.07;56.94;101340.72;4936083;29;20023;-75
2021/11/17 10:07:16;;;;;;;3.00;1.02;;;;;;;17.74;53.42;101339.28;4918568;29;20038;-77
2021/11/17 10:13:00;;;;;;;2.72;1.48;;;;;;;17.86;50.31;101350.81;4878058;29;20096;-75
2021/11/17 10:15:35;;;;;;;6.65;1.42;;;;;;;18.00;49.53;101353.72;4928430;29;20042;-73
2021/11/17 10:18:25;;;;;;;3.63;1.73;;;;;;;18.05;49.13;101347.31;4933692;29;20039;-74
2021/11/17 10:20:52;;;;;;;9.90;1.52;;;;;;;17.99;49.60;101360.38;4903577;29;20063;-74
2021/11/17 10:23:27;;;;;;;10.90;1.88;;;;;;;17.89;47.85;101366.00;4923690;29;20035;-73
2021/11/17 10:26:02;;;;;;;5.90;1.90;;;;;;;17.92;48.59;101362.66;4920104;29;20028;-74
2021/11/17 10:28:31;;;;;;;7.65;1.63;;;;;;;18.18;49.53;101357.69;4966215;29;20031;-74
2021/11/17 10:31:19;;;;;;;7.03;1.58;;;;;;;18.60;49.49;101369.91;4954984;29;20099;-73
2021/11/17 10:33:47;;;;;;;13.35;1.48;;;;;;;19.05;46.86;101380.63;4911802;29;20035;-73
2021/11/17 10:36:21;;;;;;;3.13;1.30;;;;;;;19.30;47.36;101376.66;4922208;29;20028;-72
2021/11/17 10:39:08;;;;;;;5.85;1.27;;;;;;;19.36;46.10;101363.50;4919927;29;20039;-73
2021/11/17 10:41:36;;;;;;;4.20;1.25;;;;;;;19.62;44.78;101377.75;4915281;29;20146;-73
2021/11/17 10:44:08;;;;;;;6.00;2.00;;;;;;;19.76;44.04;101374.22;4931366;29;20514;-73
2021/11/17 10:46:43;;;;;;;3.08;1.38;;;;;;;19.73;45.06;101377.59;4931922;29;20058;-73
2021/11/17 10:49:11;;;;;;;;;;;;;;;19.78;41.73;101371.97;4931894;29;20106;-72
2021/11/17 10:51:59;;;;;;;5.20;1.35;;;;;;;19.33;42.93;101377.97;4913564;29;20242;-73
2021/11/17 10:54:28;;;;;;;4.75;1.27;;;;;;;19.16;43.69;101386.88;4931471;29;20027;-72
2021/11/17 10:57:18;;;;;;;8.98;1.27;;;;;;;18.77;43.00;101386.00;4910706;29;20079;-72
2021/11/17 10:59:44;;;;;;;6.93;1.85;;;;;;;18.20;43.36;101385.06;4929004;29;20032;-73
2021/11/17 11:02:11;;;;;;;5.55;1.80;;;;;;;17.60;44.46;101378.69;4905189;29;20115;-73
2021/11/17 11:04:44;;;;;;;5.07;1.50;;;;;;;17.10;45.26;101383.53;4929636;29;20032;-76
2021/11/17 11:07:18;;;;;;;5.47;1.77;;;;;;;16.71;46.70;101370.47;4946512;29;20027;-71
2021/11/17 11:10:11;;;;;;;10.27;1.17;;;;;;;16.71;48.13;101376.00;4926551;29;20063;-75
2021/11/17 11:12:38;;;;;;;6.05;1.60;;;;;;;16.75;48.07;101366.03;4948945;29;20393;-77
2021/11/17 11:15:23;;;;;;;4.22;1.75;;;;;;;16.92;47.62;101377.56;4943567;29;20043;-77
2021/11/17 11:18:04;;;;;;;2.95;1.17;;;;;;;16.83;47.30;101378.41;4928124;29;20024;-74
2021/11/17 11:20:47;;;;;;;6.70;1.40;;;;;;;16.66;47.37;101367.72;4923439;29;20786;-73
2021/11/17 11:23:18;;;;;;;3.35;1.35;;;;;;;16.57;47.62;101378.53;4941919;29;20031;-75
2021/11/17 11:25:53;;;;;;;6.85;1.75;;;;;;;16.51;48.40;101387.94;4916915;29;20083;-74
2021/11/17 11:28:21;;;;;;;2.27;1.23;;;;;;;16.43;48.87;101392.13;4935468;29;20028;-75
2021/11/17 11:30:59;;;;;;;4.70;1.65;;;;;;;16.35;48.09;101390.78;4924929;29;20040;-75
2021/11/17 11:33:35;;;;;;;4.47;1.25;;;;;;;16.26;48.66;101386.13;4923825;29;20413;-75
2021/11/17 11:36:12;;;;;;;;;;;;;;;16.42;48.19;101376.66;4925370;29;20028;-75
2021/11/17 11:38:43;;;;;;;2.33;1.20;;;;;;;16.60;48.12;101374.38;4923381;29;19914;-73
2021/11/17 11:41:20;;;;;;;2.75;1.25;;;;;;;17.42;48.78;101369.19;4917211;29;20028;-76
2021/11/17 11:43:46;;;;;;;6.00;1.80;;;;;;;18.38;46.43;101366.84;4911201;29;20039;-73
2021/11/17 11:46:26;;;;;;;2.40;0.90;;;;;;;19.20;45.71;101362.94;4894340;29;20091;-73
2021/11/17 11:48:58;;;;;;;2.03;1.17;;;;;;;20.13;43.96;101378.00;4922434;29;20463;-73
2021/11/17 11:51:32;;;;;;;5.13;1.45;;;;;;;20.82;40.86;101374.34;4934634;29;20114;-72
2021/11/17 11:53:58;;;;;;;5.63;1.55;;;;;;;21.19;41.07;101381.56;4918086;29;20401;-72
2021/11/17 11:57:14;;;;;;;3.97;1.55;;;;;;;22.05;39.98;101376.88;4932433;29;20027;-74
2021/11/17 11:59:40;;;;;;;1.53;1.03;;;;;;;23.08;41.18;101379.41;4935928;29;20043;-73
2021/11/17 12:02:10;;;;;;;3.55;1.27;;;;;;;23.61;39.43;101385.81;4911660;29;20122;-75
2021/11/17 12:04:52;;;;;;;1.77;0.90;;;;;;;24.74;39.25;101373.34;4946555;29;20106;-75
2021/11/17 12:07:31;;;;;;;6.30;1.85;;;;;;;25.64;33.42;101367.44;4929276;29;20066;-73
2021/11/17 12:10:09;;;;;;;2.63;1.15;;;;;;;26.14;32.53;101368.38;4945458;29;20055;-75
2021/11/17 12:12:38;;;;;;;5.45;2.05;;;;;;;26.36;30.66;101377.50;4928806;29;20044;-74
2021/11/17 12:15:19;;;;;;;5.57;1.85;;;;;;;27.23;30.24;101367.72;4924428;29;20509;-76
2021/11/17 12:18:02;;;;;;;9.80;2.05;;;;;;;27.46;29.38;101372.81;4930662;29;20066;-73
2021/11/17 12:20:33;;;;;;;8.10;1.60;;;;;;;28.24;30.87;101367.63;4937398;29;20075;-74
2021/11/17 12:23:10;;;;;;;1.95;1.42;;;;;;;29.07;28.93;101373.13;4920767;29;20095;-74
2021/11/17 12:26:01;;;;;;;10.10;1.85;;;;;;;30.07;27.63;101379.06;4917437;29;20120;-74
2021/11/17 12:28:29;;;;;;;1.80;1.15;;;;;;;30.58;27.03;101380.69;4918315;29;20036;-76
2021/11/17 12:30:57;;;;;;;6.75;1.83;;;;;;;31.04;25.32;101376.88;4913902;29;20048;-73
2021/11/17 12:33:27;;;;;;;3.20;1.58;;;;;;;31.55;25.24;101385.94;4919788;29;20027;-75
2021/11/17 12:36:11;;;;;;;3.65;1.48;;;;;;;32.06;24.99;101388.06;4902734;29;20028;-75
2021/11/17 12:38:49;;;;;;;4.22;1.20;;;;;;;32.47;23.28;101388.00;4923662;29;20023;-74
2021/11/17 12:41:23;;;;;;;1.67;0.63;;;;;;;33.30;25.27;101390.50;4921537;29;20466;-74
2021/11/17 12:44:00;;;;;;;2.58;1.20;;;;;;;34.24;24.64;101388.56;4930207;29;20016;-74
2021/11/17 12:46:38;;;;;;;2.67;1.85;;;;;;;34.38;20.17;101384.97;4931388;29;20035;-74
2021/11/17 12:49:29;;;;;;;8.32;2.05;;;;;;;33.55;18.72;101382.84;4921513;29;20032;-75
2021/11/17 12:52:06;;;;;;;7.50;2.42;;;;;;;32.66;19.74;101383.25;4903072;29;20042;-74
2021/11/17 12:54:41;;;;;;;3.97;2.33;;;;;;;32.27;20.60;101384.63;4928089;29;20039;-75
2021/11/17 12:57:23;;;;;;;3.97;1.52;;;;;;;32.91;22.59;101379.78;4934249;29;20039;-74
2021/11/17 13:00:03;;;;;;;;;;;;;;;;;;;;;
2021/11/17 13:02:54;;;;;;;5.82;1.67;;;;;;;32.06;21.44;101382.41;4921868;29;20039;-71
2021/11/17 13:05:38;;;;;;;2.80;1.40;;;;;;;30.32;22.67;101381.47;4911936;29;20050;-72
2021/11/17 13:08:03;;;;;;;4.85;2.72;;;;;;;28.41;23.08;101377.66;4928561;29;20076;-72
2021/11/17 13:10:38;;;;;;;5.80;2.10;;;;;;;27.08;25.27;101376.91;4923692;29;20482;-73
2021/11/17 13:13:14;;;;;;;;;;;;;;;27.80;25.82;101384.53;4933648;29;20023;-74
2021/11/17 13:15:48;;;;;;;4.13;1.92;;;;;;;28.50;24.57;101369.00;4931631;29;19977;-74
2021/11/17 13:18:52;;;;;;;6.63;1.90;;;;;;;29.31;23.83;101376.03;4937374;29;20120;-75
2021/11/17 13:26:34;;;;;;;;;;;;;;;;;;;;;
2021/11/17 14:53:45;;;;;;;;;;;;;;;;;;;;;
2021/11/17 14:56:50;;;;;;;;;;;;;;;;;;;;;
2021/11/17 16:20:27;;;;;;;;;;;;;;;11.98;48.40;101430.22;5901391;22;9069241;-75
2021/11/17 16:23:08;;;;;;;2.00;0.60;;;;;;;11.92;48.95;101442.16;6268467;22;19914;-73
2021/11/17 16:25:45;;;;;;;0.73;0.73;;;;;;;11.86;48.99;101438.53;6292509;22;20081;-74
2021/11/17 16:28:30;;;;;;;0.70;0.70;;;;;;;11.87;48.96;101442.94;6293683;22;20019;-75
2021/11/17 16:30:59;;;;;;;2.75;0.80;;;;;;;11.73;49.23;101427.91;6295799;22;19996;-73
2021/11/17 16:33:27;;;;;;;4.32;0.63;;;;;;;11.72;49.51;101422.66;6268613;22;20011;-74
2021/11/17 16:36:06;;;;;;;;;;;;;;;;;;;;;
2021/11/17 16:38:32;;;;;;;1.63;1.40;;;;;;;11.73;50.04;101449.81;6298840;22;20003;-79
2021/11/17 16:41:06;;;;;;;3.08;1.55;;;;;;;11.51;50.34;101425.88;6270649;22;20045;-78
2021/11/17 16:47:14;;;;;;;4.13;1.90;;;;;;;11.28;52.91;101435.06;6184016;23;20021;-81
2021/11/17 16:49:43;;;;;;;2.78;1.58;;;;;;;11.32;53.35;101471.03;6283632;22;20003;-78
2021/11/17 16:52:28;;;;;;;5.13;2.42;;;;;;;11.18;54.14;101454.03;6294847;22;20057;-80
2021/11/17 16:55:00;;;;;;;6.17;1.33;;;;;;;11.04;54.27;101453.53;6264840;22;20347;-73
2021/11/17 16:57:27;;;;;;;7.47;2.85;;;;;;;10.94;54.99;101459.63;6283363;22;20007;-74
2021/11/17 16:59:56;;;;;;;11.50;3.58;;;;;;;10.76;56.39;101462.50;6286092;22;20003;-78
2021/11/17 17:02:27;;;;;;;7.90;2.33;;;;;;;10.75;56.75;101466.34;6257113;22;20090;-75
2021/11/17 17:04:53;;;;;;;5.97;1.75;;;;;;;10.56;56.74;101463.75;6285005;22;20008;-76
2021/11/17 17:07:26;;;;;;;2.17;1.85;;;;;;;10.61;57.22;101483.00;6255902;22;20030;-76
2021/11/17 17:09:53;;;;;;;11.05;3.03;;;;;;;10.45;57.78;101473.66;6258331;22;20007;-77
2021/11/17 17:12:28;;;;;;;9.32;2.10;;;;;;;10.47;58.11;101487.09;6257204;22;20084;-77
2021/11/17 17:30:48;;;;;;;;;;;;;;;;;;;;;
2021/11/17 17:33:28;;;;;;;2.15;0.90;;;;;;;9.67;57.80;101485.69;5909004;24;20044;-78
2021/11/17 17:36:25;;;;;;;4.78;1.55;;;;;;;9.53;58.37;101466.75;5900770;24;20005;-77
2021/11/17 17:39:06;;;;;;;2.25;2.05;;;;;;;9.56;58.79;101481.84;5913745;24;20013;-78
2021/11/17 17:42:00;;;;;;;11.52;2.67;;;;;;;9.57;59.38;101499.91;6061117;23;20005;-77
2021/11/17 17:44:40;;;;;;;2.33;1.80;;;;;;;9.52;59.74;101508.81;6087638;23;20064;-78
2021/11/17 17:47:31;;;;;;;;;;;;;;;;;;;;;
2021/11/17 17:50:27;;;;;;;;;;;;;;;;;;;;;
2021/11/17 17:53:05;;;;;;;;;;;;;;;9.37;60.71;101513.84;6256252;23;20032;-78
2021/11/17 17:56:11;;;;;;;12.75;2.50;;;;;;;9.26;61.20;101505.38;6229970;23;19907;-77
2021/11/17 17:58:56;;;;;;;16.42;2.50;;;;;;;9.15;62.44;101497.97;6229405;23;20008;-78
2021/11/17 18:01:42;;;;;;;7.13;2.92;;;;;;;9.23;62.48;101511.28;6232586;23;20324;-76
2021/11/17 18:08:27;;;;;;;;;;;;;;;;;;;;;
2021/11/17 18:32:57;;;;;;;16.27;2.80;;;;;;;8.88;65.64;101536.50;5850049;24;20060;-77
2021/11/17 20:55:44;;;;;;;8.07;2.45;;;;;;;9.07;67.40;101600.09;6308626;22;20040;-78
2021/11/17 20:58:34;;;;;;;3.65;2.45;;;;;;;9.12;66.92;101606.75;6360999;22;20009;-78
2021/11/17 21:01:41;;;;;;;10.32;2.78;;;;;;;9.22;66.50;101618.78;6293007;22;19998;-79
2021/11/17 21:04:07;;;;;;;;;;;;;;;9.39;67.05;101650.97;6334480;22;20075;-78
2021/11/17 21:06:32;;;;;;;;;;;;;;;9.34;67.21;101664.44;6353146;22;19910;-79